Clio, California
Current Conditions -  °F | °C
As of 11:52 AM on Friday 24 Oct 2014 (Local Time) from KBLU Reporting Station
Clear Clear  
Wind Chill: 63°   Ceiling: Unl
Heat Index: 63°   Visibility: 10mi
Dew Point: 29°   Wind: 15mph
Humidity: 28%   Direction: 160°SSE
Pressure: 30.13"   Gusts: 25mph
Location:  39.74°N, 120.58°W
Report Text: KBLU 241852Z AUTO 16013G22KT 10SM CLR 17/M02 A3013 RMK AO2 SLP142 T01721017
Loading
Personal Weather Stations






























Interactive Weather Map
Tropical Storm Tracking
New forecast layout! Learn more

10-Day Weather Forecast

Advertisements
Track Severe Weather on mobile